Лебяжье

Карта отелей и гостиниц, располагающихся рядом с аэропортом Лебяжье :

Лебяжье Волгоградская область 50° 12' 4.2588" N, 45° 12' 24.0012" E
Код аэродрома ИКАО
XRWL
Код аэродрома RU
ЬРВЛ
Координаты
N50.20118° E045.20667°
Превышение над уровнем моря
113
Основная полоса
03L/21R
Курс магнитный
029,4/209,4
Длина основной ВПП
3100
Ширина основной ВПП
90
Покрытие основной ВПП
Нетвёрдое (грунт)
Освещение ВПП
Нет
Тип: 
Аэродром
Класс аэродрома: 
Принадлежность: 
МО
Статус: 
Недействующий
Сайт: 
E-mail аэродрома: 
Страна: 
Россия
Регион: 
Волгоградская область
Город: 
Дополнительная информация: 
Бывший АД Качинского ВВАУЛ (до 1988г). С 1988г. из Венгрии был перебазирован 1-й гв. ИБАП, который был переименован в 1-й гв. ИАП (инструкторский авиационный полк), вошедший в систему 1080-го УАЦ ПЛС. Мат. часть: МиГ-23УБ, МиГ-27М/Д. Задача - переучивание выпускников летных ВУЗов на МиГ-27. С 1992 г. 1-й гв. ИАП был перевооружен на самолеты Су-24 и переименован в 1-й гв. ИБАП (инструкторский бомбардировочный авиационный полк). В 1998г. 1-й гв. ИБАП вышел из состава 1080-го УАЦ ПЛС, был реорганизован из инструкторского в боевой полк с переименованием в 1-й гв. БАП. В 2009г. матчасть 1-го гв. БАП, в связи с реформированием ВС, была передана Морозовской авиабазе. Личный состав частично был введен в штаты Морозовской Авиабазы, частично уволен по ОШМ. В н.в. в гарнизоне и на АД отсутствует комендатура, объект вошел в стадию "разграбление".

Найти трансфер

С помощью этой формы Вы можете найти трансфер из аэропорта Лебяжье в город, аэропорт или вокзал:

Карта места

Javascript is required to view this map.

Погода в аэропортах:

Авиационная погода в Лаппеэнранта

Регион: 
Погода METAR: 
EFLP 051050Z AUTO 36005KT 290V060 9999 VCSH //////CB 19/07 Q1016
Время наблюдения
2021-08-05T10:50:00Z
Температура C
19.0
Точка росы
7.0
Направление ветра
360
Скорость ветра (узлы)
5
Метео видимость
6.21
Явления погоды
VCSH
Условия полета

Авиационная погода в Пскове

Регион: 
Погода METAR: 
ULOO 051100Z 02002MPS 330V070 9999 -SHRA FEW038CB 15/11 Q1015 R01/090070 NOSIG RMK QFE757
Время наблюдения
2021-08-05T11:00:00Z
Температура C
15.0
Точка росы
11.0
Направление ветра
20
Скорость ветра (узлы)
4
Метео видимость
6.21
Явления погоды
-SHRA
Условия полета
VFR

Авиационная погода в Хомутово

Регион: 
Погода METAR: 
UHSS 051100Z 35004MPS 9000 -SHRA BKN008 BKN012CB 18/18 Q1006 R01/70D NOSIG RMK MT OBSC QFE754/1005
Время наблюдения
2021-08-05T11:00:00Z
Температура C
18.0
Точка росы
18.0
Направление ветра
350
Скорость ветра (узлы)
8
Метео видимость
5.59
Явления погоды
-SHRA
Условия полета
IFR
Аэропорт подробнее: 

Авиационная погода в Якутске

Регион: 
Погода METAR: 
UEEE 051100Z 04002MPS 3200 FU NSC 20/05 Q1002 R23L/09//70 NOSIG RMK QFE743
Время наблюдения
2021-08-05T11:00:00Z
Температура C
20.0
Точка росы
5.0
Направление ветра
40
Скорость ветра (узлы)
4
Метео видимость
1.99
Явления погоды
FU
Условия полета
IFR
Аэропорт подробнее: